createdAt,value
2022-10-16T00:00:55.736Z,15.07
2022-10-16T00:03:25.389Z,15.05
2022-10-16T00:05:54.507Z,15.01
2022-10-16T00:08:20.881Z,14.99
2022-10-16T00:10:47.275Z,14.96
2022-10-16T00:13:13.668Z,14.96
2022-10-16T00:15:40.398Z,14.96
2022-10-16T00:18:07.664Z,14.95
2022-10-16T00:20:37.915Z,14.93
2022-10-16T00:23:06.013Z,14.93
2022-10-16T00:25:33.819Z,14.93
2022-10-16T00:28:01.650Z,14.94
2022-10-16T00:30:28.909Z,14.92
2022-10-16T00:32:55.785Z,14.92
2022-10-16T00:35:22.571Z,14.91
2022-10-16T00:37:49.250Z,14.92
2022-10-16T00:40:15.716Z,14.92
2022-10-16T00:42:42.100Z,14.93
2022-10-16T00:45:10.026Z,14.93
2022-10-16T00:47:50.043Z,14.90
2022-10-16T00:50:29.133Z,14.91
2022-10-16T00:52:56.733Z,14.88
2022-10-16T00:55:24.255Z,14.89
2022-10-16T00:57:51.020Z,14.86
2022-10-16T01:00:23.067Z,14.89
2022-10-16T01:02:57.589Z,14.88
2022-10-16T01:05:31.488Z,14.85
2022-10-16T01:08:11.835Z,14.86
2022-10-16T01:10:50.483Z,14.87
2022-10-16T01:13:25.889Z,14.87
2022-10-16T01:15:59.894Z,14.88
2022-10-16T01:18:37.880Z,14.88
2022-10-16T01:21:09.345Z,14.90
2022-10-16T01:23:57.532Z,14.90
2022-10-16T01:26:45.423Z,14.91
2022-10-16T01:29:24.870Z,14.90
2022-10-16T01:31:58.368Z,14.91
2022-10-16T01:34:43.019Z,14.89
2022-10-16T01:37:16.125Z,14.90
2022-10-16T01:39:46.560Z,14.90
2022-10-16T01:42:18.001Z,14.90
2022-10-16T01:44:46.674Z,14.90
2022-10-16T01:47:15.470Z,14.90
2022-10-16T01:49:44.671Z,14.90
2022-10-16T01:52:16.838Z,14.91
2022-10-16T01:54:46.839Z,14.91
2022-10-16T01:57:15.117Z,14.89
2022-10-16T01:59:47.513Z,14.89
2022-10-16T02:02:16.038Z,14.88
2022-10-16T02:04:50.003Z,14.88
2022-10-16T02:07:17.268Z,14.86
2022-10-16T02:09:44.140Z,14.87
2022-10-16T02:12:16.292Z,14.88
2022-10-16T02:14:42.969Z,14.89
2022-10-16T02:17:16.337Z,14.91
2022-10-16T02:19:43.292Z,14.92
2022-10-16T02:22:18.386Z,14.95
2022-10-16T02:25:02.646Z,14.93
2022-10-16T02:27:55.409Z,14.93
2022-10-16T02:30:37.438Z,14.91
2022-10-16T02:33:07.913Z,14.91
2022-10-16T02:35:35.220Z,14.91
2022-10-16T02:38:02.255Z,14.94
2022-10-16T02:40:28.748Z,14.95
2022-10-16T02:42:56.240Z,14.99
2022-10-16T02:45:24.337Z,15.00
2022-10-16T02:47:50.708Z,15.02
2022-10-16T02:50:17.346Z,15.03
2022-10-16T02:52:43.774Z,15.03
2022-10-16T02:55:10.147Z,15.02
2022-10-16T02:57:38.053Z,15.01
2022-10-16T03:00:06.021Z,15.03
2022-10-16T03:02:32.410Z,15.04
2022-10-16T03:04:58.925Z,15.03
2022-10-16T03:07:25.538Z,15.06
2022-10-16T03:09:52.025Z,15.07
2022-10-16T03:12:18.533Z,15.08
2022-10-16T03:14:45.069Z,15.08
2022-10-16T03:17:11.525Z,15.10
2022-10-16T03:19:37.901Z,15.13
2022-10-16T03:22:04.300Z,15.14
2022-10-16T03:24:30.759Z,15.16
2022-10-16T03:26:57.261Z,15.18
2022-10-16T03:29:23.699Z,15.21
2022-10-16T03:31:50.553Z,15.22
2022-10-16T03:34:16.982Z,15.23
2022-10-16T03:36:43.378Z,15.23
2022-10-16T03:39:09.916Z,15.23
2022-10-16T03:41:36.350Z,15.22
2022-10-16T03:44:02.724Z,15.23
2022-10-16T03:46:29.128Z,15.23
2022-10-16T03:48:55.483Z,15.23
2022-10-16T03:51:21.951Z,15.23
2022-10-16T03:53:48.359Z,15.23
2022-10-16T03:56:14.750Z,15.23
2022-10-16T03:58:41.123Z,15.24
2022-10-16T04:01:07.839Z,15.25
2022-10-16T04:03:34.440Z,15.27
2022-10-16T04:06:00.826Z,15.28
2022-10-16T04:08:27.245Z,15.29
2022-10-16T04:10:53.678Z,15.29
2022-10-16T04:15:51.446Z,15.29
2022-10-16T04:18:17.857Z,15.29
2022-10-16T04:20:44.265Z,15.29
2022-10-16T04:23:10.695Z,15.28
2022-10-16T04:25:37.119Z,15.27
2022-10-16T04:28:03.554Z,15.26
2022-10-16T04:30:30.049Z,15.29
2022-10-16T04:32:56.575Z,15.30
2022-10-16T04:35:23.340Z,15.32
2022-10-16T04:37:49.750Z,15.33
2022-10-16T04:40:16.241Z,15.36
2022-10-16T04:42:42.684Z,15.40
2022-10-16T04:45:12.111Z,15.44
2022-10-16T04:47:41.316Z,15.48
2022-10-16T04:50:08.365Z,15.50
2022-10-16T04:55:06.645Z,15.56
2022-10-16T04:57:34.264Z,15.57
2022-10-16T05:00:01.207Z,15.61
2022-10-16T05:02:27.742Z,15.62
2022-10-16T05:04:54.338Z,15.64
2022-10-16T05:07:20.744Z,15.65
2022-10-16T05:09:47.156Z,15.67
2022-10-16T05:12:13.577Z,15.68
2022-10-16T05:14:39.992Z,15.71
2022-10-16T05:17:07.276Z,15.70
2022-10-16T05:19:33.690Z,15.70
2022-10-16T05:22:00.188Z,15.69
2022-10-16T05:24:26.889Z,15.73
2022-10-16T05:26:53.596Z,15.74
2022-10-16T05:29:20.161Z,15.75
2022-10-16T05:31:46.704Z,15.76
2022-10-16T05:34:13.348Z,15.76
2022-10-16T05:36:39.743Z,15.78
2022-10-16T05:39:06.104Z,15.81
2022-10-16T05:41:32.769Z,15.82
2022-10-16T05:43:59.206Z,15.81
2022-10-16T05:46:25.581Z,15.84
2022-10-16T05:48:54.835Z,15.83
2022-10-16T05:51:21.251Z,15.82
2022-10-16T05:53:47.849Z,15.79
2022-10-16T05:56:14.272Z,15.80
2022-10-16T05:58:41.545Z,15.81
2022-10-16T06:01:13.475Z,15.83
2022-10-16T06:03:40.017Z,15.84
2022-10-16T06:06:12.485Z,15.86
2022-10-16T06:08:40.222Z,15.86
2022-10-16T06:11:09.583Z,15.89
2022-10-16T06:13:36.395Z,15.90
2022-10-16T06:16:04.802Z,15.92
2022-10-16T06:18:31.693Z,15.93
2022-10-16T06:20:58.808Z,15.92
2022-10-16T06:23:26.062Z,15.96
2022-10-16T06:25:52.736Z,15.95
2022-10-16T06:28:19.429Z,15.96
2022-10-16T06:30:46.632Z,15.99
2022-10-16T06:33:13.491Z,16.00
2022-10-16T06:35:39.941Z,16.01
2022-10-16T06:38:06.398Z,16.01
2022-10-16T06:40:32.841Z,16.01
2022-10-16T06:42:59.235Z,16.01
2022-10-16T06:45:25.608Z,16.02
2022-10-16T06:47:52.184Z,16.01
2022-10-16T06:50:18.576Z,16.01
2022-10-16T06:52:44.949Z,16.02
2022-10-16T06:55:11.343Z,16.00
2022-10-16T06:57:37.700Z,15.98
2022-10-16T07:00:04.555Z,15.99
2022-10-16T07:02:30.955Z,16.03
2022-10-16T07:04:57.901Z,16.02
2022-10-16T07:07:25.828Z,16.05
2022-10-16T07:09:52.197Z,16.11
2022-10-16T07:12:18.764Z,16.16
2022-10-16T07:14:45.267Z,16.23
2022-10-16T07:17:11.819Z,16.29
2022-10-16T07:19:38.453Z,16.36
2022-10-16T07:22:05.789Z,16.40
2022-10-16T07:24:32.274Z,16.44
2022-10-16T07:26:58.683Z,16.48
2022-10-16T07:29:25.123Z,16.51
2022-10-16T07:31:51.605Z,16.54
2022-10-16T07:34:19.914Z,16.58
2022-10-16T07:36:49.542Z,16.65
2022-10-16T07:39:15.957Z,16.71
2022-10-16T07:41:42.439Z,16.76
2022-10-16T07:44:09.002Z,16.81
2022-10-16T07:46:36.944Z,16.85
2022-10-16T07:49:04.349Z,16.87
2022-10-16T07:51:31.912Z,16.91
2022-10-16T07:53:58.384Z,16.95
2022-10-16T07:56:24.842Z,16.99
2022-10-16T07:58:52.154Z,17.03
2022-10-16T08:01:19.344Z,17.08
2022-10-16T08:03:48.613Z,17.12
2022-10-16T08:06:15.746Z,17.16
2022-10-16T08:08:42.320Z,17.22
2022-10-16T08:11:09.177Z,17.23
2022-10-16T08:13:36.007Z,17.30
2022-10-16T08:16:02.666Z,17.35
2022-10-16T08:18:29.219Z,17.41
2022-10-16T08:21:01.024Z,17.45
2022-10-16T08:23:28.423Z,17.49
2022-10-16T08:25:55.825Z,17.53
2022-10-16T08:28:23.691Z,17.57
2022-10-16T08:30:50.198Z,17.62
2022-10-16T08:33:16.673Z,17.68
2022-10-16T08:35:43.062Z,17.73
2022-10-16T08:38:10.079Z,17.82
2022-10-16T08:40:38.208Z,17.87
2022-10-16T08:43:14.779Z,17.90
2022-10-16T08:46:07.060Z,17.93
2022-10-16T08:48:42.158Z,17.95
2022-10-16T08:51:11.992Z,17.97
2022-10-16T08:53:50.619Z,18.02
2022-10-16T08:56:18.562Z,18.09
2022-10-16T09:01:17.257Z,18.17
2022-10-16T09:04:11.750Z,18.26
2022-10-16T09:06:55.819Z,18.35
2022-10-16T09:09:51.325Z,18.47
2022-10-16T09:12:38.165Z,18.56
2022-10-16T09:15:25.576Z,18.66
2022-10-16T09:18:18.520Z,18.73
2022-10-16T09:20:54.291Z,18.76
2022-10-16T09:23:28.044Z,18.84
2022-10-16T09:25:56.379Z,18.95
2022-10-16T09:28:23.094Z,19.05
2022-10-16T09:30:50.686Z,19.19
2022-10-16T09:33:19.990Z,19.31
2022-10-16T09:35:50.001Z,19.40
2022-10-16T09:38:29.553Z,19.38
2022-10-16T09:41:02.466Z,19.40
2022-10-16T09:43:32.223Z,19.40
2022-10-16T09:46:07.470Z,19.51
2022-10-16T09:48:51.475Z,19.57
2022-10-16T09:51:30.364Z,19.76
2022-10-16T09:54:02.634Z,20.01
2022-10-16T09:56:36.449Z,20.24
2022-10-16T09:59:27.593Z,20.57
2022-10-16T10:01:56.133Z,20.86
2022-10-16T10:04:24.900Z,21.12
2022-10-16T10:06:55.339Z,21.29
2022-10-16T10:09:24.723Z,21.36
2022-10-16T10:12:00.147Z,21.56
2022-10-16T10:14:29.633Z,21.63
2022-10-16T10:17:15.254Z,21.88
2022-10-16T10:19:47.708Z,22.06
2022-10-16T10:22:20.113Z,22.29
2022-10-16T10:25:09.928Z,22.51
2022-10-16T10:27:48.517Z,22.64
2022-10-16T10:30:36.975Z,22.76
2022-10-16T10:33:23.901Z,22.80
2022-10-16T10:36:02.733Z,22.86
2022-10-16T10:38:40.838Z,22.94
2022-10-16T10:41:43.127Z,22.99
2022-10-16T10:44:26.314Z,22.95
2022-10-16T10:47:02.372Z,22.93
2022-10-16T10:49:35.188Z,23.01
2022-10-16T10:52:10.632Z,23.10
2022-10-16T10:54:50.881Z,23.18
2022-10-16T10:57:23.897Z,22.92
2022-10-16T11:00:15.517Z,22.90
2022-10-16T11:02:45.451Z,22.87
2022-10-16T11:05:23.619Z,23.10
2022-10-16T11:07:59.463Z,23.18
2022-10-16T11:10:30.313Z,23.38
2022-10-16T11:13:10.877Z,23.42
2022-10-16T11:15:42.153Z,23.49
2022-10-16T11:18:19.926Z,23.64
2022-10-16T11:20:53.505Z,23.64
2022-10-16T11:23:25.808Z,23.75
2022-10-16T11:25:53.560Z,23.81
2022-10-16T11:28:41.042Z,23.62
2022-10-16T11:31:33.440Z,23.58
2022-10-16T11:34:23.606Z,23.54
2022-10-16T11:37:29.646Z,23.51
2022-10-16T11:40:05.592Z,23.56
2022-10-16T11:42:38.927Z,23.77
2022-10-16T11:45:14.684Z,23.74
2022-10-16T11:47:59.275Z,23.83
2022-10-16T11:50:39.627Z,23.98
2022-10-16T11:53:17.062Z,24.22
2022-10-16T11:55:47.086Z,24.28
2022-10-16T11:58:26.160Z,24.19
2022-10-16T12:01:15.903Z,24.13
2022-10-16T12:04:00.794Z,24.24
2022-10-16T12:06:33.176Z,23.97
2022-10-16T12:09:03.701Z,23.85
2022-10-16T12:11:30.024Z,23.72
2022-10-16T12:14:11.326Z,23.43
2022-10-16T12:16:54.877Z,23.19
2022-10-16T12:19:25.399Z,23.17
2022-10-16T12:21:55.396Z,23.03
2022-10-16T12:24:44.890Z,22.98
2022-10-16T12:27:34.221Z,23.10
2022-10-16T12:30:03.544Z,23.60
2022-10-16T12:32:46.156Z,23.98
2022-10-16T12:35:26.265Z,24.33
2022-10-16T12:37:53.248Z,24.42
2022-10-16T12:40:28.752Z,24.29
2022-10-16T12:42:55.172Z,24.18
2022-10-16T12:45:33.401Z,24.11
2022-10-16T12:48:02.915Z,24.15
2022-10-16T12:50:41.612Z,24.09
2022-10-16T12:53:37.597Z,23.96
2022-10-16T12:56:31.736Z,23.83
2022-10-16T12:59:10.329Z,23.67
2022-10-16T13:02:10.252Z,23.38
2022-10-16T13:04:53.280Z,23.39
2022-10-16T13:08:04.626Z,23.40
2022-10-16T13:10:42.318Z,23.41
2022-10-16T13:13:23.961Z,23.43
2022-10-16T13:16:08.746Z,23.52
2022-10-16T13:18:49.364Z,23.49
2022-10-16T13:21:38.074Z,23.61
2022-10-16T13:24:18.680Z,23.45
2022-10-16T13:26:58.765Z,23.40
2022-10-16T13:29:30.533Z,23.34
2022-10-16T13:31:56.988Z,23.44
2022-10-16T13:34:23.857Z,23.44
2022-10-16T13:36:53.544Z,23.41
2022-10-16T13:39:26.042Z,23.51
2022-10-16T13:42:07.911Z,23.67
2022-10-16T13:44:44.123Z,23.56
2022-10-16T13:47:22.306Z,23.39
2022-10-16T13:50:05.027Z,23.39
2022-10-16T13:52:31.841Z,23.33
2022-10-16T13:55:01.059Z,23.19
2022-10-16T13:57:29.145Z,23.02
2022-10-16T13:59:56.000Z,22.94
2022-10-16T14:02:32.261Z,22.87
2022-10-16T14:04:59.498Z,22.65
2022-10-16T14:07:29.047Z,22.49
2022-10-16T14:09:56.957Z,22.42
2022-10-16T14:12:27.242Z,22.31
2022-10-16T14:14:56.489Z,22.16
2022-10-16T14:17:29.400Z,22.00
2022-10-16T14:20:01.048Z,21.88
2022-10-16T14:22:35.860Z,21.83
2022-10-16T14:25:03.742Z,21.83
2022-10-16T14:27:34.453Z,21.80
2022-10-16T14:30:15.720Z,21.69
2022-10-16T14:32:53.193Z,21.58
2022-10-16T14:35:27.440Z,21.48
2022-10-16T14:37:55.374Z,21.43
2022-10-16T14:40:25.174Z,21.38
2022-10-16T14:42:52.417Z,21.32
2022-10-16T14:45:24.612Z,21.27
2022-10-16T14:47:58.007Z,21.22
2022-10-16T14:50:24.431Z,21.19
2022-10-16T14:52:51.224Z,21.10
2022-10-16T14:55:18.340Z,21.08
2022-10-16T14:57:46.409Z,21.06
2022-10-16T15:00:24.385Z,21.03
2022-10-16T15:02:51.667Z,20.99
2022-10-16T15:05:23.247Z,21.00
2022-10-16T15:07:50.178Z,20.97
2022-10-16T15:10:21.841Z,20.96
2022-10-16T15:12:48.351Z,20.96
2022-10-16T15:15:23.798Z,20.91
2022-10-16T15:17:54.228Z,20.86
2022-10-16T15:20:21.153Z,20.84
2022-10-16T15:22:47.632Z,20.82
2022-10-16T15:25:43.023Z,20.81
2022-10-16T15:28:10.491Z,20.77
2022-10-16T15:30:38.416Z,20.74
2022-10-16T15:33:10.025Z,20.69
2022-10-16T15:35:36.400Z,20.63
2022-10-16T15:38:02.785Z,20.59
2022-10-16T15:40:29.525Z,20.56
2022-10-16T15:42:55.958Z,20.52
2022-10-16T15:45:22.495Z,20.46
2022-10-16T15:47:49.087Z,20.44
2022-10-16T15:50:16.899Z,20.41
2022-10-16T15:52:43.559Z,20.37
2022-10-16T15:55:12.329Z,20.33
2022-10-16T15:57:39.187Z,20.31
2022-10-16T16:00:10.575Z,20.28
2022-10-16T16:02:38.138Z,20.26
2022-10-16T16:05:05.510Z,20.22
2022-10-16T16:07:36.739Z,20.21
2022-10-16T16:10:05.834Z,20.18
2022-10-16T16:12:33.165Z,20.15
2022-10-16T16:15:02.032Z,20.14
2022-10-16T16:17:32.569Z,20.13
2022-10-16T16:19:59.040Z,20.09
2022-10-16T16:22:26.217Z,20.07
2022-10-16T16:24:52.864Z,20.07
2022-10-16T16:27:20.664Z,20.05
2022-10-16T16:29:48.603Z,20.03
2022-10-16T16:32:15.182Z,20.02
2022-10-16T16:34:41.654Z,20.01
2022-10-16T16:37:08.204Z,20.01
2022-10-16T16:39:34.694Z,19.99
2022-10-16T16:42:01.145Z,19.99
2022-10-16T16:44:27.612Z,19.96
2022-10-16T16:46:55.455Z,19.91
2022-10-16T16:49:21.889Z,19.88
2022-10-16T16:51:48.417Z,19.85
2022-10-16T16:54:14.968Z,19.84
2022-10-16T16:56:45.325Z,19.80
2022-10-16T16:59:17.726Z,19.80
2022-10-16T17:01:45.357Z,19.75
2022-10-16T17:04:12.401Z,19.75
2022-10-16T17:06:39.498Z,19.74
2022-10-16T17:09:07.154Z,19.71
2022-10-16T17:11:34.539Z,19.70
2022-10-16T17:14:02.080Z,19.69
2022-10-16T17:16:31.470Z,19.66
2022-10-16T17:19:02.846Z,19.64
2022-10-16T17:21:30.632Z,19.61
2022-10-16T17:23:57.752Z,19.60
2022-10-16T17:26:24.288Z,19.56
2022-10-16T17:28:56.816Z,19.52
2022-10-16T17:31:35.329Z,19.46
2022-10-16T17:34:03.921Z,19.39
2022-10-16T17:36:33.962Z,19.34
2022-10-16T17:39:04.426Z,19.25
2022-10-16T17:41:32.360Z,19.17
2022-10-16T17:43:58.976Z,19.06
2022-10-16T17:46:25.584Z,18.98
2022-10-16T17:48:54.410Z,18.89
2022-10-16T17:51:24.096Z,18.83
2022-10-16T17:53:52.494Z,18.74
2022-10-16T17:56:19.322Z,18.68
2022-10-16T17:58:51.559Z,18.62
2022-10-16T18:01:24.207Z,18.55
2022-10-16T18:03:52.210Z,18.51
2022-10-16T18:06:22.757Z,18.46
2022-10-16T18:08:50.497Z,18.43
2022-10-16T18:11:16.925Z,18.37
2022-10-16T18:13:43.355Z,18.32
2022-10-16T18:16:13.159Z,18.28
2022-10-16T18:18:41.785Z,18.22
2022-10-16T18:21:11.082Z,18.17
2022-10-16T18:23:38.953Z,18.13
2022-10-16T18:26:07.102Z,18.07
2022-10-16T18:28:33.756Z,18.02
2022-10-16T18:31:03.152Z,17.95
2022-10-16T18:33:33.162Z,17.89
2022-10-16T18:36:08.327Z,17.83
2022-10-16T18:38:36.197Z,17.81
2022-10-16T18:41:05.520Z,17.77
2022-10-16T18:43:33.369Z,17.77
2022-10-16T18:46:02.383Z,17.77
2022-10-16T18:48:30.553Z,17.77
2022-10-16T18:51:33.728Z,17.76
2022-10-16T18:54:07.053Z,17.74
2022-10-16T18:56:33.469Z,17.74
2022-10-16T18:59:02.050Z,17.76
2022-10-16T19:01:30.334Z,17.76
2022-10-16T19:04:02.840Z,17.76
2022-10-16T19:06:30.398Z,17.76
2022-10-16T19:08:57.238Z,17.74
2022-10-16T19:11:25.562Z,17.73
2022-10-16T19:13:54.987Z,17.72
2022-10-16T19:16:25.335Z,17.73
2022-10-16T19:18:54.976Z,17.70
2022-10-16T19:21:22.797Z,17.69
2022-10-16T19:23:53.762Z,17.69
2022-10-16T19:26:21.604Z,17.68
2022-10-16T19:28:48.404Z,17.68
2022-10-16T19:31:17.789Z,17.69
2022-10-16T19:33:44.584Z,17.68
2022-10-16T19:36:12.634Z,17.70
2022-10-16T19:38:40.152Z,17.70
2022-10-16T19:41:12.262Z,17.73
2022-10-16T19:43:39.172Z,17.72
2022-10-16T19:46:14.223Z,17.73
2022-10-16T19:48:40.945Z,17.77
2022-10-16T19:51:10.605Z,17.80
2022-10-16T19:53:37.038Z,17.81
2022-10-16T19:56:12.488Z,17.85
2022-10-16T19:58:38.894Z,17.86
2022-10-16T20:01:05.507Z,17.90
2022-10-16T20:03:32.079Z,17.92
2022-10-16T20:05:58.650Z,17.95
2022-10-16T20:08:25.063Z,17.96
2022-10-16T20:10:52.769Z,17.98
2022-10-16T20:13:20.313Z,18.01
2022-10-16T20:15:47.070Z,18.02
2022-10-16T20:18:14.646Z,18.03
2022-10-16T20:20:45.956Z,18.04
2022-10-16T20:23:12.378Z,17.99
2022-10-16T20:25:41.279Z,17.96
2022-10-16T20:28:10.815Z,17.93
2022-10-16T20:30:39.773Z,17.86
2022-10-16T20:33:09.385Z,17.81
2022-10-16T20:35:41.955Z,17.81
2022-10-16T20:38:09.235Z,17.79
2022-10-16T20:40:40.770Z,17.79
2022-10-16T20:43:07.892Z,17.77
2022-10-16T20:45:34.261Z,17.77
2022-10-16T20:48:00.720Z,17.76
2022-10-16T20:50:30.324Z,17.73
2022-10-16T20:52:58.310Z,17.69
2022-10-16T20:55:25.420Z,17.65
2022-10-16T20:57:52.232Z,17.58
2022-10-16T21:00:18.959Z,17.53
2022-10-16T21:02:45.772Z,17.49
2022-10-16T21:05:12.203Z,17.47
2022-10-16T21:07:38.615Z,17.44
2022-10-16T21:10:05.480Z,17.42
2022-10-16T21:12:31.844Z,17.38
2022-10-16T21:15:13.958Z,17.32
2022-10-16T21:17:41.482Z,17.26
2022-10-16T21:20:08.401Z,17.23
2022-10-16T21:22:34.841Z,17.21
2022-10-16T21:25:01.266Z,17.17
2022-10-16T21:27:27.634Z,17.15
2022-10-16T21:29:54.394Z,17.11
2022-10-16T21:32:21.395Z,17.11
2022-10-16T21:34:48.270Z,17.07
2022-10-16T21:37:14.715Z,17.02
2022-10-16T21:39:41.167Z,16.99
2022-10-16T21:42:07.536Z,16.96
2022-10-16T21:44:34.003Z,16.94
2022-10-16T21:47:00.543Z,16.93
2022-10-16T21:49:27.057Z,16.89
2022-10-16T21:51:53.499Z,16.87
2022-10-16T21:54:22.423Z,16.86
2022-10-16T21:56:48.916Z,16.86
2022-10-16T21:59:16.053Z,16.85
2022-10-16T22:01:43.112Z,16.84
2022-10-16T22:04:14.465Z,16.83
2022-10-16T22:06:41.392Z,16.80
2022-10-16T22:09:07.863Z,16.79
2022-10-16T22:11:37.344Z,16.76
2022-10-16T22:14:06.045Z,16.73
2022-10-16T22:16:33.589Z,16.69
2022-10-16T22:19:00.349Z,16.64
2022-10-16T22:21:28.325Z,16.63
2022-10-16T22:23:55.042Z,16.58
2022-10-16T22:26:21.784Z,16.56
2022-10-16T22:28:48.279Z,16.52
2022-10-16T22:31:15.398Z,16.52
2022-10-16T22:33:42.745Z,16.52
2022-10-16T22:36:12.697Z,16.53
2022-10-16T22:38:39.432Z,16.54
2022-10-16T22:41:10.528Z,16.55
2022-10-16T22:43:39.050Z,16.57
2022-10-16T22:46:07.648Z,16.56
2022-10-16T22:48:36.330Z,16.58
2022-10-16T22:51:04.499Z,16.57
2022-10-16T22:53:31.128Z,16.55
2022-10-16T22:55:57.567Z,16.54
2022-10-16T22:58:24.194Z,16.54
2022-10-16T23:00:51.195Z,16.54
2022-10-16T23:03:17.935Z,16.54
2022-10-16T23:05:45.111Z,16.53
2022-10-16T23:08:12.632Z,16.53
2022-10-16T23:10:40.539Z,16.54
2022-10-16T23:13:07.119Z,16.56
2022-10-16T23:15:33.617Z,16.57
2022-10-16T23:18:00.264Z,16.59
2022-10-16T23:20:26.695Z,16.61
2022-10-16T23:22:53.125Z,16.64
2022-10-16T23:25:19.532Z,16.65
2022-10-16T23:27:46.057Z,16.66
2022-10-16T23:30:12.503Z,16.68
2022-10-16T23:32:40.227Z,16.70
2022-10-16T23:35:06.877Z,16.70
2022-10-16T23:37:33.287Z,16.71
2022-10-16T23:39:59.699Z,16.71
2022-10-16T23:42:26.480Z,16.71
2022-10-16T23:44:53.049Z,16.75
2022-10-16T23:47:19.417Z,16.76
2022-10-16T23:49:45.771Z,16.78
2022-10-16T23:52:12.144Z,16.80
2022-10-16T23:54:38.525Z,16.79
2022-10-16T23:57:04.985Z,16.78
2022-10-16T23:59:31.357Z,16.75
